createdAt,value
2019-01-17T00:07:40.270Z,11.97
2019-01-17T00:10:39.857Z,12.23
2019-01-17T00:13:46.032Z,10.43
2019-01-17T00:17:02.334Z,11.77
2019-01-17T00:19:54.748Z,10.73
2019-01-17T00:22:56.598Z,11.13
2019-01-17T00:25:56.116Z,17.17
2019-01-17T00:35:24.035Z,13.63
2019-01-17T00:38:24.095Z,13.73
2019-01-17T00:41:23.278Z,13.23
2019-01-17T00:44:26.132Z,15.03
2019-01-17T00:47:25.425Z,12.13
2019-01-17T00:50:25.421Z,14.47
2019-01-17T00:53:24.610Z,14.10
2019-01-17T00:56:30.401Z,13.87
2019-01-17T00:59:30.594Z,15.57
2019-01-17T01:02:30.544Z,15.37
2019-01-17T01:05:29.895Z,16.10
2019-01-17T01:08:29.799Z,14.77
2019-01-17T01:11:21.994Z,19.30
2019-01-17T01:14:38.002Z,15.20
2019-01-17T01:17:30.598Z,18.50
2019-01-17T01:20:29.991Z,15.33
2019-01-17T01:23:32.626Z,14.67
2019-01-17T01:26:32.194Z,16.13
2019-01-17T01:29:31.378Z,16.50
2019-01-17T01:32:29.956Z,17.80
2019-01-17T01:35:48.008Z,13.50
2019-01-17T01:41:55.519Z,12.30
2019-01-17T01:44:55.503Z,13.40
2019-01-17T01:47:36.408Z,11.87
2019-01-17T01:50:39.427Z,10.13
2019-01-17T01:53:21.492Z,11.70
2019-01-17T01:58:49.310Z,9.80
2019-01-17T02:01:31.807Z,12.30
2019-01-17T02:04:13.828Z,12.67
2019-01-17T02:07:01.450Z,11.73
2019-01-17T02:09:48.702Z,10.77
2019-01-17T02:15:37.541Z,12.93
2019-01-17T02:18:21.948Z,12.97
2019-01-17T02:24:16.168Z,14.80
2019-01-17T02:27:29.846Z,17.67
2019-01-17T02:32:36.977Z,15.47
2019-01-17T02:35:22.414Z,16.63
2019-01-17T02:38:11.605Z,17.40
2019-01-17T02:46:57.017Z,14.70
2019-01-17T02:58:07.392Z,19.57
2019-01-17T03:13:52.814Z,21.33
2019-01-17T03:27:19.305Z,23.33
2019-01-17T03:30:00.654Z,21.13
2019-01-17T03:32:40.909Z,20.50
2019-01-17T03:35:21.405Z,22.40
2019-01-17T03:38:03.704Z,23.07
2019-01-17T03:40:49.262Z,23.07
2019-01-17T03:43:30.640Z,21.73
2019-01-17T03:46:11.224Z,23.43
2019-01-17T03:48:56.390Z,24.30
2019-01-17T03:51:37.770Z,27.13
2019-01-17T03:54:17.843Z,25.00
2019-01-17T03:59:43.632Z,23.17
2019-01-17T04:02:27.635Z,26.60
2019-01-17T04:05:12.632Z,25.27
2019-01-17T04:07:54.424Z,24.93
2019-01-17T04:10:29.488Z,25.97
2019-01-17T04:13:34.429Z,22.00
2019-01-17T04:18:50.858Z,22.33
2019-01-17T04:24:14.371Z,23.47
2019-01-17T04:26:56.858Z,30.03
2019-01-17T04:29:36.769Z,25.90
2019-01-17T04:32:16.855Z,24.80
2019-01-17T04:35:00.857Z,27.77
2019-01-17T04:37:43.189Z,23.97
2019-01-17T04:40:23.342Z,21.90
2019-01-17T04:43:07.737Z,22.53
2019-01-17T04:45:48.365Z,21.70
2019-01-17T04:48:27.965Z,22.83
2019-01-17T04:51:09.467Z,21.47
2019-01-17T04:59:27.071Z,22.17
2019-01-17T05:07:42.871Z,19.50
2019-01-17T05:10:23.463Z,21.93
2019-01-17T05:13:04.685Z,19.57
2019-01-17T05:15:44.522Z,19.83
2019-01-17T05:21:10.881Z,19.07
2019-01-17T05:26:35.251Z,18.13
2019-01-17T05:29:15.485Z,19.23
2019-01-17T05:31:55.771Z,17.47
2019-01-17T05:34:23.418Z,17.90
2019-01-17T05:37:10.817Z,18.90
2019-01-17T05:39:57.869Z,14.63
2019-01-17T05:42:38.631Z,15.43
2019-01-17T05:45:18.754Z,16.23
2019-01-17T05:47:58.484Z,18.93
2019-01-17T05:53:24.333Z,19.37
2019-01-17T05:56:04.277Z,17.43
2019-01-17T05:58:47.754Z,19.43
2019-01-17T06:04:17.774Z,17.77
2019-01-17T06:06:57.777Z,19.70
2019-01-17T06:09:37.833Z,23.13
2019-01-17T06:12:21.812Z,22.87
2019-01-17T06:17:46.667Z,25.10
2019-01-17T06:20:30.489Z,24.10
2019-01-17T06:25:53.957Z,23.87
2019-01-17T06:31:17.060Z,21.40
2019-01-17T06:33:59.447Z,21.33
2019-01-17T06:36:43.448Z,18.70
2019-01-17T06:39:11.147Z,19.93
2019-01-17T06:42:20.638Z,22.17
2019-01-17T06:45:07.755Z,16.03
2019-01-17T06:47:47.885Z,13.97
2019-01-17T06:53:14.520Z,11.27
2019-01-17T07:04:16.619Z,14.83
2019-01-17T07:18:07.170Z,10.07
2019-01-17T07:36:42.452Z,7.80
2019-01-17T07:39:10.679Z,6.93
2019-01-17T07:41:44.571Z,6.83
2019-01-17T07:44:20.567Z,6.50
2019-01-17T07:46:47.954Z,8.93
2019-01-17T07:49:18.686Z,9.97
2019-01-17T07:51:46.589Z,9.10
2019-01-17T07:54:15.764Z,8.43
2019-01-17T07:56:43.434Z,8.13
2019-01-17T07:59:16.220Z,9.00
2019-01-17T08:01:48.898Z,8.00
2019-01-17T08:04:26.050Z,8.57
2019-01-17T08:06:58.008Z,8.83
2019-01-17T08:09:32.263Z,5.80
2019-01-17T08:12:05.129Z,6.77
2019-01-17T08:14:38.908Z,4.83
2019-01-17T08:17:41.401Z,5.70
2019-01-17T08:20:35.190Z,4.07
2019-01-17T08:22:53.911Z,3.83
2019-01-17T08:25:47.527Z,2.80
2019-01-17T08:28:31.069Z,2.70
2019-01-17T08:31:12.514Z,2.67
2019-01-17T08:34:28.155Z,3.57
2019-01-17T08:37:43.772Z,3.13
2019-01-17T08:40:22.147Z,3.33
2019-01-17T08:43:08.704Z,2.83
2019-01-17T08:46:01.117Z,3.80
2019-01-17T08:48:42.132Z,4.43
2019-01-17T08:51:58.735Z,4.73
2019-01-17T08:54:59.174Z,3.17
2019-01-17T08:57:43.669Z,4.67
2019-01-17T09:00:16.537Z,3.70
2019-01-17T09:03:01.302Z,4.17
2019-01-17T09:12:10.991Z,4.77
2019-01-17T09:14:40.955Z,3.80
2019-01-17T09:17:49.944Z,4.90
2019-01-17T09:20:22.054Z,4.43
2019-01-17T09:22:52.178Z,4.90
2019-01-17T09:25:26.448Z,4.50
2019-01-17T09:27:56.977Z,4.90
2019-01-17T09:30:30.890Z,4.20
2019-01-17T09:33:01.211Z,5.27
2019-01-17T09:35:34.022Z,5.43
2019-01-17T09:38:02.027Z,4.90
2019-01-17T09:40:37.047Z,5.10
2019-01-17T09:43:08.685Z,4.30
2019-01-17T09:45:36.378Z,6.53
2019-01-17T09:48:11.489Z,4.80
2019-01-17T09:50:41.146Z,6.03
2019-01-17T09:53:08.809Z,4.73
2019-01-17T09:55:37.348Z,5.00
2019-01-17T09:58:04.934Z,4.87
2019-01-17T10:00:35.833Z,4.57
2019-01-17T10:03:05.166Z,5.60
2019-01-17T10:05:32.850Z,6.30
2019-01-17T10:08:09.121Z,6.07
2019-01-17T10:10:36.951Z,7.13
2019-01-17T10:13:11.184Z,6.50
2019-01-17T10:15:50.400Z,6.63
2019-01-17T10:18:48.291Z,7.53
2019-01-17T10:21:57.191Z,7.73
2019-01-17T10:25:12.116Z,8.07
2019-01-17T10:28:26.778Z,8.60
2019-01-17T10:31:31.776Z,8.77
2019-01-17T10:35:04.051Z,7.73
2019-01-17T10:37:44.632Z,8.03
2019-01-17T10:40:50.638Z,10.20
2019-01-17T10:43:49.494Z,8.10
2019-01-17T10:46:51.202Z,8.73
2019-01-17T10:49:52.759Z,9.07
2019-01-17T10:53:30.132Z,8.67
2019-01-17T10:56:55.433Z,7.90
2019-01-17T10:59:52.452Z,7.53
2019-01-17T11:02:46.214Z,6.63
2019-01-17T11:05:49.146Z,7.20
2019-01-17T11:08:39.675Z,5.80
2019-01-17T11:11:30.415Z,7.37
2019-01-17T11:14:24.008Z,6.27
2019-01-17T11:17:41.269Z,4.03
2019-01-17T11:20:28.895Z,4.50
2019-01-17T11:23:34.308Z,2.50
2019-01-17T11:26:34.349Z,3.70
2019-01-17T11:29:30.107Z,4.40
2019-01-17T11:32:51.732Z,4.07
2019-01-17T11:36:06.664Z,3.90
2019-01-17T11:39:10.599Z,2.87
2019-01-17T11:42:08.081Z,2.60
2019-01-17T11:45:16.162Z,2.03
2019-01-17T11:48:21.764Z,2.17
2019-01-17T11:51:12.479Z,5.20
2019-01-17T11:54:23.405Z,3.07
2019-01-17T11:57:21.789Z,2.63
2019-01-17T12:00:20.558Z,2.93
2019-01-17T12:03:13.894Z,3.20
2019-01-17T12:05:41.556Z,5.80
2019-01-17T12:08:11.222Z,2.13
2019-01-17T12:10:41.834Z,4.13
2019-01-17T12:13:09.482Z,3.20
2019-01-17T12:15:37.084Z,2.87
2019-01-17T12:18:05.832Z,3.30
2019-01-17T12:20:33.482Z,2.23
2019-01-17T12:23:01.792Z,2.90
2019-01-17T12:25:29.452Z,2.37
2019-01-17T12:28:07.400Z,6.57
2019-01-17T12:30:35.074Z,4.20
2019-01-17T12:33:02.721Z,4.27
2019-01-17T12:35:30.378Z,7.20
2019-01-17T12:37:57.992Z,5.60
2019-01-17T12:40:25.640Z,4.60
2019-01-17T12:42:53.283Z,3.37
2019-01-17T12:45:21.072Z,5.70
2019-01-17T12:47:51.758Z,4.90
2019-01-17T12:50:19.535Z,2.00
2019-01-17T12:52:47.138Z,3.03
2019-01-17T12:55:15.013Z,6.03
2019-01-17T12:57:42.779Z,9.27
2019-01-17T13:00:14.130Z,4.77
2019-01-17T13:02:41.760Z,6.13
2019-01-17T13:05:09.451Z,6.70
2019-01-17T13:07:37.124Z,5.83
2019-01-17T13:10:06.090Z,7.30
2019-01-17T13:12:33.892Z,9.10
2019-01-17T13:15:01.530Z,4.17
2019-01-17T13:17:29.232Z,4.67
2019-01-17T13:19:56.781Z,4.80
2019-01-17T13:22:24.361Z,3.83
2019-01-17T13:24:51.976Z,4.43
2019-01-17T13:27:20.551Z,2.40
2019-01-17T13:29:48.226Z,5.37
2019-01-17T13:32:20.419Z,5.17
2019-01-17T13:34:53.164Z,3.30
2019-01-17T13:37:22.149Z,5.47
2019-01-17T13:39:54.200Z,4.33
2019-01-17T13:42:39.903Z,3.47
2019-01-17T13:45:10.107Z,3.20
2019-01-17T13:47:47.101Z,7.67
2019-01-17T13:54:08.691Z,10.17
2019-01-17T13:57:10.811Z,8.03
2019-01-17T14:00:01.431Z,9.43
2019-01-17T14:02:52.092Z,8.03
2019-01-17T14:05:37.614Z,10.83
2019-01-17T14:08:26.888Z,11.30
2019-01-17T14:11:04.277Z,6.87
2019-01-17T14:13:49.651Z,8.70
2019-01-17T14:16:23.125Z,9.13
2019-01-17T14:19:35.545Z,4.33
2019-01-17T14:22:05.691Z,5.63
2019-01-17T14:24:33.469Z,6.00
2019-01-17T14:27:17.171Z,7.70
2019-01-17T14:29:47.487Z,5.37
2019-01-17T14:32:21.111Z,5.07
2019-01-17T14:38:05.502Z,8.43
2019-01-17T14:40:39.631Z,6.50
2019-01-17T14:43:14.092Z,4.07
2019-01-17T14:45:46.627Z,5.73
2019-01-17T14:48:29.220Z,9.37
2019-01-17T14:51:14.523Z,8.40
2019-01-17T14:57:22.112Z,5.93
2019-01-17T14:59:57.977Z,9.43
2019-01-17T15:02:35.461Z,7.90
2019-01-17T15:09:21.164Z,11.77
2019-01-17T15:16:45.819Z,8.10
2019-01-17T15:20:13.204Z,6.73
2019-01-17T15:26:39.809Z,7.70
2019-01-17T15:29:23.400Z,9.27
2019-01-17T15:32:48.704Z,8.43
2019-01-17T15:36:13.553Z,5.57
2019-01-17T15:39:31.400Z,9.00
2019-01-17T15:46:37.039Z,8.33
2019-01-17T15:53:11.837Z,10.63
2019-01-17T16:17:20.800Z,6.93
2019-01-17T16:32:04.221Z,9.80
2019-01-17T16:38:32.937Z,9.40
2019-01-17T16:51:25.563Z,7.03
2019-01-17T17:44:34.723Z,8.10
2019-01-17T17:53:10.241Z,8.33
2019-01-17T18:12:58.014Z,4.80
2019-01-17T18:27:52.698Z,10.20
2019-01-17T19:11:06.094Z,11.80
2019-01-17T19:18:21.898Z,20.60
2019-01-17T19:25:26.949Z,12.83
2019-01-17T19:56:20.545Z,9.53
2019-01-17T19:59:58.641Z,10.23
2019-01-17T20:09:12.821Z,11.07
